Time;durP1;ratioP1;P1;durP2;ratioP2;P2;SDS_P1;SDS_P2;PMS_P1;PMS_P2;Temp;Humidity;BMP_temperature;BMP_pressure;BME280_temperature;BME280_humidity;BME280_pressure;Samples;Min_cycle;Max_cycle;Signal;HPM_P1;HPM_P2
2021/08/12 00:01:53;;;;;;;11.35;6.85;;;17.50;67.90;;;;;;4882276;29;20048;-87
2021/08/12 00:07:41;;;;;;;13.38;6.38;;;17.50;68.20;;;;;;4881086;29;20031;-87
2021/08/12 00:13:30;;;;;;;11.15;5.20;;;17.40;68.40;;;;;;4880466;29;20036;-86
2021/08/12 00:19:19;;;;;;;10.15;5.00;;;17.30;68.50;;;;;;4880308;29;20040;-86
2021/08/12 00:25:09;;;;;;;10.25;5.40;;;17.20;68.90;;;;;;4880183;29;20044;-86
2021/08/12 00:30:57;;;;;;;11.63;5.15;;;17.00;69.10;;;;;;4880296;29;20036;-87
2021/08/12 00:36:45;;;;;;;11.38;6.40;;;17.00;69.60;;;;;;4879901;29;20085;-86
2021/08/12 00:42:34;;;;;;;11.52;6.05;;;17.00;70.10;;;;;;4883828;29;20040;-86
2021/08/12 00:52:20;;;;;;;11.50;6.30;;;16.90;69.90;;;;;;4897069;29;20060;-87
2021/08/12 00:58:09;;;;;;;11.90;5.63;;;16.90;70.30;;;;;;4891482;29;20040;-87
2021/08/12 01:04:01;;;;;;;9.15;4.97;;;16.80;70.50;;;;;;4883463;29;20055;-87
2021/08/12 01:09:55;;;;;;;10.98;5.75;;;16.80;70.80;;;;;;4883740;29;20140;-88
2021/08/12 01:15:52;;;;;;;10.75;6.03;;;16.70;71.40;;;;;;4883454;29;20097;-87
2021/08/12 01:21:46;;;;;;;12.30;6.18;;;16.80;71.80;;;;;;4883415;29;20363;-87
2021/08/12 01:27:38;;;;;;;10.48;5.70;;;16.90;71.70;;;;;;4883345;29;20513;-87
2021/08/12 01:33:52;;;;;;;9.55;5.38;;;16.80;71.20;;;;;;4883397;29;20036;-87
2021/08/12 01:39:42;;;;;;;11.18;5.70;;;16.60;71.30;;;;;;4883281;29;20088;-87
2021/08/12 01:45:31;;;;;;;11.50;5.47;;;16.50;71.60;;;;;;4883179;29;20041;-87
2021/08/12 01:55:29;;;;;;;12.52;5.88;;;16.40;71.80;;;;;;4882895;29;20516;-87
2021/08/12 02:01:20;;;;;;;10.98;5.90;;;16.30;72.10;;;;;;4882642;29;20036;-87
2021/08/12 02:07:11;;;;;;;10.75;5.68;;;16.20;72.20;;;;;;4882392;29;20076;-87
2021/08/12 02:13:02;;;;;;;11.60;5.72;;;16.20;72.40;;;;;;4882351;29;20502;-87
2021/08/12 02:18:50;;;;;;;10.73;5.13;;;16.10;72.50;;;;;;4882218;29;20157;-86
2021/08/12 02:24:48;;;;;;;9.95;5.53;;;16.10;72.70;;;;;;4882253;29;20044;-87
2021/08/12 02:30:44;;;;;;;11.60;6.38;;;16.00;72.70;;;;;;4881784;29;20055;-87
2021/08/12 02:36:33;;;;;;;11.75;6.28;;;15.90;72.70;;;;;;4882283;29;20505;-87
2021/08/12 02:42:22;;;;;;;12.68;5.88;;;15.90;73.00;;;;;;4881933;29;20443;-87
2021/08/12 02:48:12;;;;;;;12.75;6.43;;;15.80;73.20;;;;;;4881902;29;20637;-86
2021/08/12 02:58:03;;;;;;;13.05;6.20;;;15.70;73.20;;;;;;4881695;29;20518;-88
2021/08/12 03:03:52;;;;;;;10.52;6.05;;;15.60;73.30;;;;;;4881564;29;20036;-85
2021/08/12 03:09:42;;;;;;;12.82;6.03;;;15.60;73.50;;;;;;4881238;29;20410;-87
2021/08/12 03:15:31;;;;;;;12.80;5.93;;;15.60;73.70;;;;;;4881051;29;20032;-87
2021/08/12 03:21:19;;;;;;;11.93;6.00;;;15.50;73.80;;;;;;4881344;29;20089;-87
2021/08/12 03:27:11;;;;;;;10.95;5.68;;;15.40;73.90;;;;;;4881430;29;20049;-87
2021/08/12 03:32:59;;;;;;;12.07;6.38;;;15.40;74.00;;;;;;4882777;29;20032;-87
2021/08/12 03:38:48;;;;;;;10.25;5.68;;;15.30;74.10;;;;;;4881463;29;20124;-86
2021/08/12 03:44:37;;;;;;;11.23;5.70;;;15.30;74.30;;;;;;4881255;29;20040;-86
2021/08/12 03:50:25;;;;;;;11.90;6.30;;;15.30;74.40;;;;;;4880625;29;20149;-87
2021/08/12 04:00:06;;;;;;;13.57;6.35;;;15.20;74.50;;;;;;4881273;29;20052;-88
2021/08/12 04:06:04;;;;;;;13.55;6.40;;;15.20;74.90;;;;;;4880794;29;20029;-88
2021/08/12 04:12:07;;;;;;;12.13;6.30;;;15.20;74.90;;;;;;4880706;29;20124;-89
2021/08/12 04:17:56;;;;;;;11.85;6.20;;;15.20;75.00;;;;;;4880642;29;20062;-88
2021/08/12 04:23:44;;;;;;;15.07;8.00;;;15.20;75.10;;;;;;4881194;29;20581;-89
2021/08/12 04:29:33;;;;;;;12.27;6.43;;;15.20;75.10;;;;;;4880817;29;20060;-88
2021/08/12 04:35:21;;;;;;;13.43;6.78;;;15.30;75.30;;;;;;4880442;29;20039;-88
2021/08/12 04:41:13;;;;;;;13.73;7.20;;;15.30;75.30;;;;;;4880594;29;20032;-87
2021/08/12 04:47:02;;;;;;;12.95;6.88;;;15.40;75.40;;;;;;4880230;29;20500;-88
2021/08/12 04:52:51;;;;;;;12.10;6.45;;;15.40;75.50;;;;;;4880467;29;20041;-90
2021/08/12 05:02:40;;;;;;;12.00;6.47;;;15.60;75.60;;;;;;4880501;29;20386;-87
2021/08/12 05:08:29;;;;;;;12.10;5.90;;;15.70;75.80;;;;;;4879868;29;20056;-88
2021/08/12 05:14:18;;;;;;;13.48;7.32;;;15.80;75.80;;;;;;4880073;29;20168;-88
2021/08/12 05:20:08;;;;;;;15.55;7.13;;;15.90;76.10;;;;;;4879726;29;20386;-86
2021/08/12 05:25:56;;;;;;;15.15;7.75;;;16.10;76.10;;;;;;4882941;29;20169;-88
2021/08/12 05:31:45;;;;;;;14.85;8.00;;;16.30;76.20;;;;;;4884372;29;20409;-90
2021/08/12 05:37:34;;;;;;;15.82;7.50;;;16.50;76.40;;;;;;4883917;29;20097;-89
2021/08/12 05:43:24;;;;;;;15.27;7.63;;;16.80;76.30;;;;;;4883728;29;20505;-90
2021/08/12 05:49:13;;;;;;;14.00;7.47;;;17.00;76.40;;;;;;4900749;29;20028;-89
2021/08/12 05:55:04;;;;;;;14.80;7.57;;;17.30;76.30;;;;;;4899419;29;20044;-88
2021/08/12 06:04:46;;;;;;;14.43;8.30;;;17.60;76.20;;;;;;4883249;29;20169;-91
2021/08/12 06:10:36;;;;;;;14.55;8.32;;;17.90;76.30;;;;;;4882306;29;20173;-84
2021/08/12 06:16:25;;;;;;;16.77;10.02;;;18.00;75.90;;;;;;4882338;29;20064;-87
2021/08/12 06:22:14;;;;;;;16.10;10.73;;;18.20;76.10;;;;;;4882211;29;20032;-87
2021/08/12 06:28:03;;;;;;;18.50;11.00;;;18.30;76.00;;;;;;4882742;29;20044;-89
2021/08/12 06:33:53;;;;;;;15.60;10.02;;;18.40;76.10;;;;;;4882958;29;20502;-90
2021/08/12 06:39:42;;;;;;;15.85;8.23;;;18.60;76.60;;;;;;4884090;29;20063;-89
2021/08/12 06:45:31;;;;;;;12.48;7.10;;;18.80;76.40;;;;;;4884020;29;20040;-88
2021/08/12 06:51:20;;;;;;;12.63;7.82;;;19.20;76.90;;;;;;4882956;29;20048;-89
2021/08/12 06:57:09;;;;;;;11.15;6.15;;;19.60;76.80;;;;;;4883399;29;20040;-90
2021/08/12 07:06:53;;;;;;;10.77;5.10;;;20.40;77.00;;;;;;4891349;29;20098;-89
2021/08/12 07:12:49;;;;;;;11.40;5.50;;;21.00;76.60;;;;;;4883498;29;20060;-91
2021/08/12 07:18:39;;;;;;;11.18;4.80;;;21.60;76.30;;;;;;4887018;29;20081;-91
2021/08/12 07:24:28;;;;;;;9.25;4.80;;;22.10;75.60;;;;;;4883208;29;20043;-91
2021/08/12 07:30:16;;;;;;;10.13;4.68;;;22.70;74.90;;;;;;4881514;29;20487;-92
2021/08/12 07:36:06;;;;;;;10.25;4.78;;;23.20;74.50;;;;;;4881630;29;20054;-90
2021/08/12 07:41:55;;;;;;;9.57;4.85;;;23.50;73.50;;;;;;4881445;29;20398;-89
2021/08/12 07:47:43;;;;;;;8.55;4.50;;;23.70;72.70;;;;;;4880729;29;20505;-88
2021/08/12 07:53:32;;;;;;;9.48;3.95;;;23.90;72.30;;;;;;4880473;29;20424;-86
2021/08/12 07:59:21;;;;;;;9.38;4.35;;;24.10;71.90;;;;;;4880561;29;20059;-86
2021/08/12 08:09:08;;;;;;;8.65;4.35;;;24.40;71.00;;;;;;4880519;29;20044;-87
2021/08/12 08:15:00;;;;;;;9.30;4.20;;;24.60;70.90;;;;;;4880387;29;20119;-86
2021/08/12 08:20:48;;;;;;;9.40;4.30;;;24.90;70.80;;;;;;4880304;29;20043;-88
2021/08/12 08:26:40;;;;;;;9.88;4.38;;;25.30;70.20;;;;;;4880483;29;20032;-88
2021/08/12 08:32:28;;;;;;;9.63;4.57;;;25.60;69.40;;;;;;4880546;29;20044;-88
2021/08/12 08:38:17;;;;;;;8.57;4.20;;;25.80;68.70;;;;;;4879794;29;20096;-88
2021/08/12 08:44:08;;;;;;;9.38;4.63;;;26.10;68.50;;;;;;4880242;29;20382;-88
2021/08/12 08:49:57;;;;;;;8.93;4.15;;;26.30;68.10;;;;;;4882037;29;20115;-93
2021/08/12 08:55:46;;;;;;;7.50;3.58;;;26.40;67.10;;;;;;4879715;29;20032;-86
2021/08/12 09:01:39;;;;;;;8.48;3.95;;;26.50;66.40;;;;;;4883624;29;20044;-87
2021/08/12 09:11:28;;;;;;;8.30;4.20;;;26.60;65.90;;;;;;4883405;29;20109;-85
2021/08/12 09:17:20;;;;;;;9.40;4.43;;;26.80;65.90;;;;;;4883381;29;20040;-86
2021/08/12 09:23:10;;;;;;;9.48;4.10;;;26.90;65.20;;;;;;4882978;29;20036;-86
2021/08/12 09:28:59;;;;;;;9.75;3.83;;;27.10;64.30;;;;;;4884199;29;20104;-88
2021/08/12 09:34:48;;;;;;;6.55;3.45;;;27.20;64.10;;;;;;4883873;29;20128;-87
2021/08/12 09:40:38;;;;;;;7.93;3.03;;;27.60;63.90;;;;;;4882925;29;20506;-87
2021/08/12 09:46:34;;;;;;;5.63;2.72;;;27.90;63.00;;;;;;4882692;29;20036;-87
2021/08/12 09:52:27;;;;;;;6.18;2.70;;;28.40;62.70;;;;;;4883049;29;20181;-87
2021/08/12 09:58:18;;;;;;;6.95;2.50;;;28.90;60.70;;;;;;4882514;29;20098;-87
2021/08/12 10:04:28;;;;;;;6.47;2.83;;;29.30;59.40;;;;;;4882205;29;20398;-87
2021/08/12 10:14:18;;;;;;;8.82;2.63;;;29.70;58.10;;;;;;4882394;29;20142;-89
2021/08/12 10:20:10;;;;;;;7.32;3.08;;;30.10;56.90;;;;;;4882558;29;20073;-88
2021/08/12 10:26:01;;;;;;;6.50;3.10;;;30.30;56.00;;;;;;4882583;29;20108;-90
2021/08/12 10:31:52;;;;;;;6.53;3.20;;;30.90;55.60;;;;;;4882526;29;20087;-89
2021/08/12 10:37:40;;;;;;;5.32;2.95;;;31.90;54.50;;;;;;4887443;29;20036;-89
2021/08/12 10:43:38;;;;;;;6.43;3.08;;;31.80;53.20;;;;;;4888551;29;20415;-88
2021/08/12 10:49:37;;;;;;;6.88;3.10;;;32.60;52.50;;;;;;4902173;29;20028;-87
2021/08/12 10:55:46;;;;;;;7.35;3.00;;;33.50;51.20;;;;;;4886783;29;20063;-88
2021/08/12 11:01:42;;;;;;;7.00;2.85;;;34.50;49.00;;;;;;4885180;29;20049;-89
2021/08/12 11:07:59;;;;;;;7.45;3.47;;;34.80;47.10;;;;;;4887193;29;20032;-90
2021/08/12 11:13:59;;;;;;;11.50;3.25;;;36.20;47.90;;;;;;4873381;29;20032;-88
2021/08/12 11:19:49;;;;;;;7.82;3.33;;;37.70;46.60;;;;;;4867207;29;20494;-87
2021/08/12 11:26:00;;;;;;;5.15;2.95;;;39.50;44.40;;;;;;4865926;29;20058;-87
2021/08/12 11:32:10;;;;;;;6.53;3.38;;;41.20;41.60;;;;;;4865089;29;20084;-86
2021/08/12 11:37:58;;;;;;;5.00;2.83;;;42.60;39.40;;;;;;4865681;29;20060;-88
2021/08/12 11:43:51;;;;;;;5.63;3.05;;;44.00;37.60;;;;;;4866888;29;20028;-87
2021/08/12 11:49:40;;;;;;;6.65;3.00;;;44.50;35.50;;;;;;4865533;29;20438;-87
2021/08/12 11:55:33;;;;;;;5.47;3.10;;;44.20;33.90;;;;;;4864720;29;20452;-87
2021/08/12 12:01:27;;;;;;;5.97;3.03;;;45.10;32.90;;;;;;4865604;29;20101;-88
2021/08/12 12:07:17;;;;;;;4.68;2.90;;;45.50;30.80;;;;;;4864768;29;20056;-87
2021/08/12 12:17:21;;;;;;;6.10;3.10;;;45.90;29.70;;;;;;4884997;29;20517;-90
2021/08/12 12:23:16;;;;;;;6.80;2.97;;;45.60;29.20;;;;;;4883729;29;20162;-86
2021/08/12 12:29:10;;;;;;;5.97;2.97;;;45.20;28.40;;;;;;4882967;29;20036;-88
2021/08/12 12:35:04;;;;;;;6.10;3.10;;;44.20;28.50;;;;;;4879546;29;20134;-88
2021/08/12 12:41:08;;;;;;;6.07;3.17;;;44.00;29.40;;;;;;4880541;29;20047;-85
2021/08/12 12:46:56;;;;;;;5.63;3.10;;;45.00;28.90;;;;;;4879923;29;20052;-88
2021/08/12 12:52:59;;;;;;;8.82;3.10;;;44.10;28.10;;;;;;4880181;29;20093;-87
2021/08/12 12:58:49;;;;;;;5.75;3.17;;;44.50;28.50;;;;;;4880635;29;20211;-87
2021/08/12 13:04:38;;;;;;;5.75;3.20;;;45.60;28.70;;;;;;4888616;29;20040;-90
2021/08/12 13:10:27;;;;;;;6.75;3.28;;;46.30;28.50;;;;;;4881008;29;20132;-86
2021/08/12 13:20:20;;;;;;;7.28;3.00;;;47.10;28.30;;;;;;4881694;29;20059;-87
2021/08/12 13:26:34;;;;;;;6.00;2.88;;;47.50;27.00;;;;;;4884968;29;20052;-88
2021/08/12 13:32:36;;;;;;;7.00;3.38;;;46.60;26.20;;;;;;4889474;29;20090;-87
2021/08/12 13:38:28;;;;;;;7.00;3.15;;;46.40;26.20;;;;;;4881215;29;20077;-85
2021/08/12 13:44:19;;;;;;;5.80;3.30;;;46.50;26.20;;;;;;4893213;29;20036;-89
2021/08/12 13:50:09;;;;;;;5.95;2.90;;;47.50;26.50;;;;;;4884600;29;20055;-86
2021/08/12 13:56:05;;;;;;;5.70;3.15;;;49.00;25.90;;;;;;4883485;29;20501;-90
2021/08/12 14:01:54;;;;;;;;;;;49.40;25.60;;;;;;4884564;29;20076;-90
2021/08/12 14:08:17;;;;;;;5.13;3.10;;;50.80;25.80;;;;;;4901163;29;20032;-89
2021/08/12 14:14:22;;;;;;;7.22;4.00;;;51.80;25.60;;;;;;4882930;29;20040;-89
2021/08/12 14:20:12;;;;;;;5.60;3.72;;;54.10;24.80;;;;;;4866042;29;20098;-88
2021/08/12 14:26:00;;;;;;;6.50;4.28;;;55.50;24.10;;;;;;4863701;29;20064;-89
2021/08/12 14:31:51;;;;;;;5.40;3.70;;;56.20;22.30;;;;;;4864234;29;20097;-89
2021/08/12 14:37:39;;;;;;;6.88;4.50;;;55.90;22.90;;;;;;4863870;29;20036;-89
2021/08/12 14:43:32;;;;;;;9.63;5.20;;;56.80;22.80;;;;;;4864277;29;20076;-91
2021/08/12 14:49:26;;;;;;;7.68;6.32;;;58.50;22.40;;;;;;4876558;29;20044;-91
2021/08/12 14:55:15;;;;;;;7.57;6.20;;;59.50;21.20;;;;;;4864412;29;20165;-89
2021/08/12 15:01:03;;;;;;;5.82;3.20;;;58.50;20.30;;;;;;4862878;29;20064;-88
2021/08/12 15:06:54;;;;;;;4.57;2.97;;;53.90;20.50;;;;;;4863590;29;20094;-92
2021/08/12 15:12:43;;;;;;;5.95;2.90;;;51.80;21.50;;;;;;4862649;29;20036;-89
2021/08/12 15:22:28;;;;;;;5.93;3.13;;;47.20;22.20;;;;;;4881565;29;20113;-87
2021/08/12 15:28:17;;;;;;;6.82;3.00;;;45.50;23.60;;;;;;4882665;29;20036;-89
2021/08/12 15:34:06;;;;;;;6.25;3.15;;;44.50;23.70;;;;;;4882868;29;20035;-89
2021/08/12 15:39:57;;;;;;;7.03;3.30;;;44.80;25.10;;;;;;4881213;29;20040;-88
2021/08/12 15:45:47;;;;;;;5.72;3.03;;;45.10;24.80;;;;;;4891246;29;20109;-91
2021/08/12 15:51:36;;;;;;;8.30;3.92;;;45.50;25.50;;;;;;4884572;29;20039;-86
2021/08/12 15:57:25;;;;;;;7.60;4.20;;;46.00;25.50;;;;;;4880890;29;20040;-88
2021/08/12 16:03:14;;;;;;;6.55;3.20;;;46.30;25.50;;;;;;4880376;29;20741;-87
2021/08/12 16:09:10;;;;;;;7.78;3.40;;;45.40;25.30;;;;;;4879968;29;20044;-87
2021/08/12 16:14:59;;;;;;;6.47;3.20;;;45.70;25.70;;;;;;4880255;29;20081;-87
2021/08/12 16:24:48;;;;;;;6.55;2.85;;;44.70;26.10;;;;;;4883903;29;20486;-87
2021/08/12 16:30:37;;;;;;;6.05;3.03;;;44.10;26.00;;;;;;4883727;29;20097;-86
2021/08/12 16:36:26;;;;;;;8.13;3.60;;;43.70;26.60;;;;;;4884799;29;20058;-86
2021/08/12 16:42:16;;;;;;;7.53;3.22;;;43.30;26.70;;;;;;4883271;29;20119;-87
2021/08/12 16:48:05;;;;;;;6.55;3.10;;;43.00;27.20;;;;;;4883123;29;20036;-88
2021/08/12 16:53:53;;;;;;;6.22;3.17;;;43.20;27.60;;;;;;4885415;29;20039;-92
2021/08/12 16:59:42;;;;;;;7.20;3.13;;;43.50;27.60;;;;;;4884913;29;20093;-92
2021/08/12 17:05:32;;;;;;;7.13;3.30;;;44.20;27.60;;;;;;4884287;29;20052;-91
2021/08/12 17:11:21;;;;;;;7.97;3.20;;;44.80;27.20;;;;;;4899925;29;20058;-90
2021/08/12 17:17:10;;;;;;;7.65;3.35;;;43.70;27.40;;;;;;4884603;29;20545;-92
2021/08/12 17:26:54;;;;;;;8.05;3.30;;;43.40;27.70;;;;;;4891979;29;20085;-92
2021/08/12 17:32:42;;;;;;;7.93;3.97;;;43.00;28.00;;;;;;4892777;29;20156;-91
2021/08/12 17:38:36;;;;;;;8.95;3.50;;;41.50;27.60;;;;;;4901259;29;20024;-92
2021/08/12 17:44:27;;;;;;;9.55;4.03;;;39.30;28.20;;;;;;4894620;29;20036;-93
2021/08/12 17:50:15;;;;;;;8.63;4.25;;;37.50;29.50;;;;;;4903366;29;20052;-90
2021/08/12 17:56:04;;;;;;;7.85;4.10;;;36.00;30.40;;;;;;4891752;29;20039;-91
2021/08/12 18:01:56;;;;;;;9.00;4.05;;;34.90;31.90;;;;;;4889998;29;20533;-87
2021/08/12 18:07:46;;;;;;;9.00;4.50;;;33.90;33.00;;;;;;4888700;29;20500;-90
2021/08/12 18:13:34;;;;;;;8.27;4.38;;;33.00;34.30;;;;;;4889770;29;20109;-87
2021/08/12 18:19:23;;;;;;;8.50;4.35;;;32.20;35.60;;;;;;4889165;29;20032;-89
2021/08/12 18:29:07;;;;;;;8.70;4.70;;;31.00;37.40;;;;;;4889988;29;20089;-89
2021/08/12 18:34:56;;;;;;;9.55;4.43;;;30.40;38.80;;;;;;4891464;29;20084;-90
2021/08/12 18:40:45;;;;;;;9.15;4.40;;;29.90;39.90;;;;;;4892192;29;20101;-90
2021/08/12 18:46:34;;;;;;;9.98;5.05;;;29.30;40.80;;;;;;4889668;29;20028;-90
2021/08/12 18:52:21;;;;;;;9.10;4.80;;;28.80;42.10;;;;;;4887598;29;20040;-89
2021/08/12 18:58:11;;;;;;;9.05;4.70;;;28.40;43.10;;;;;;4887859;29;20044;-89
2021/08/12 19:04:00;;;;;;;9.45;4.97;;;28.00;44.00;;;;;;4889421;29;20061;-87
2021/08/12 19:09:49;;;;;;;9.20;4.90;;;27.60;44.80;;;;;;4890647;29;20453;-88
2021/08/12 19:15:40;;;;;;;10.98;5.15;;;27.20;45.60;;;;;;4888232;29;20040;-91
2021/08/12 19:21:30;;;;;;;9.35;5.40;;;27.00;46.80;;;;;;4887894;29;20044;-91
2021/08/12 19:31:15;;;;;;;8.50;4.85;;;26.60;47.40;;;;;;4894883;29;20035;-92
2021/08/12 19:37:06;;;;;;;11.27;6.70;;;26.20;48.10;;;;;;4899564;29;20061;-92
2021/08/12 19:42:54;;;;;;;10.90;5.22;;;25.90;48.60;;;;;;4889333;29;20119;-92
2021/08/12 19:48:45;;;;;;;11.23;6.07;;;25.60;49.40;;;;;;4890141;29;20048;-92
2021/08/12 19:54:34;;;;;;;10.60;5.60;;;25.40;50.10;;;;;;4895180;29;20047;-92
2021/08/12 20:00:26;;;;;;;10.88;5.93;;;25.10;50.80;;;;;;4887414;29;20039;-90
2021/08/12 20:06:14;;;;;;;11.52;5.95;;;24.90;51.60;;;;;;4886497;29;20075;-92
2021/08/12 20:12:07;;;;;;;11.63;6.60;;;24.70;52.10;;;;;;4882849;29;20059;-91
2021/08/12 20:17:55;;;;;;;10.88;5.75;;;24.40;52.70;;;;;;4881172;29;20035;-88
2021/08/12 20:23:44;;;;;;;10.45;6.32;;;24.20;53.30;;;;;;4880744;29;20044;-87
2021/08/12 20:33:27;;;;;;;11.48;6.47;;;23.90;54.40;;;;;;4881789;29;20390;-88
2021/08/12 20:39:18;;;;;;;11.00;6.80;;;23.70;54.90;;;;;;4898765;29;20067;-89
2021/08/12 20:45:07;;;;;;;10.57;6.35;;;23.50;55.40;;;;;;4882171;29;20043;-90
2021/08/12 20:50:57;;;;;;;10.93;6.07;;;23.30;56.00;;;;;;4881404;29;20489;-89
2021/08/12 20:56:46;;;;;;;11.35;6.30;;;23.20;56.70;;;;;;4885383;29;20060;-90
2021/08/12 21:02:34;;;;;;;14.32;6.55;;;23.10;57.10;;;;;;4886742;29;20410;-90
2021/08/12 21:08:23;;;;;;;11.13;6.68;;;22.90;57.60;;;;;;4887750;29;20065;-89
2021/08/12 21:14:13;;;;;;;10.60;6.63;;;22.70;58.20;;;;;;4891779;29;20044;-90
2021/08/12 21:20:04;;;;;;;10.95;6.80;;;22.60;58.70;;;;;;4888127;29;20529;-90
2021/08/12 21:25:54;;;;;;;12.25;7.05;;;22.50;59.10;;;;;;4889401;29;20109;-89
2021/08/12 21:35:36;;;;;;;13.05;7.40;;;22.30;59.80;;;;;;4888250;29;20151;-91
2021/08/12 21:41:25;;;;;;;13.45;7.30;;;22.10;60.20;;;;;;4888945;29;20076;-92
2021/08/12 21:47:13;;;;;;;11.00;7.25;;;21.90;60.80;;;;;;4886486;29;20051;-90
2021/08/12 21:53:04;;;;;;;13.60;7.70;;;21.90;61.20;;;;;;4888520;29;20040;-91
2021/08/12 21:58:52;;;;;;;12.48;7.53;;;21.70;61.60;;;;;;4895125;29;20154;-91
2021/08/12 22:04:41;;;;;;;13.02;7.43;;;21.60;62.10;;;;;;4885210;29;20430;-91
2021/08/12 22:10:32;;;;;;;12.32;7.00;;;21.50;62.50;;;;;;4883690;29;20096;-91
2021/08/12 22:16:21;;;;;;;12.38;7.65;;;21.40;63.00;;;;;;4884098;29;20036;-91
2021/08/12 22:22:10;;;;;;;12.98;7.15;;;21.30;63.40;;;;;;4884420;29;20056;-91
2021/08/12 22:28:01;;;;;;;14.95;7.18;;;21.30;64.10;;;;;;4884446;29;20390;-91
2021/08/12 22:37:44;;;;;;;11.05;6.93;;;21.20;64.40;;;;;;4884555;29;20119;-90
2021/08/12 22:43:34;;;;;;;13.27;7.57;;;21.10;64.60;;;;;;4883964;29;20504;-90
2021/08/12 22:49:22;;;;;;;11.07;7.00;;;21.00;65.00;;;;;;4883854;29;20116;-90
2021/08/12 22:55:15;;;;;;;13.93;7.85;;;20.90;65.40;;;;;;4883161;29;20036;-90
2021/08/12 23:01:04;;;;;;;13.60;7.97;;;20.90;65.70;;;;;;4883040;29;20044;-90
2021/08/12 23:06:56;;;;;;;11.65;7.55;;;20.80;66.00;;;;;;4882464;29;20039;-89
2021/08/12 23:12:45;;;;;;;11.73;7.53;;;20.70;66.30;;;;;;4882332;29;20048;-89
2021/08/12 23:18:33;;;;;;;11.07;6.70;;;20.60;66.70;;;;;;4881286;29;20028;-90
2021/08/12 23:24:22;;;;;;;13.30;7.70;;;20.60;67.00;;;;;;4881880;29;20513;-89
2021/08/12 23:30:10;;;;;;;13.10;8.05;;;20.50;67.20;;;;;;4881849;29;20076;-90
2021/08/12 23:39:52;;;;;;;11.80;7.75;;;20.40;67.60;;;;;;4882609;29;20071;-89
2021/08/12 23:45:44;;;;;;;11.90;7.78;;;20.30;67.90;;;;;;4881744;29;20077;-89
2021/08/12 23:51:33;;;;;;;12.18;8.20;;;20.20;68.30;;;;;;4881435;29;20043;-90
2021/08/12 23:57:22;;;;;;;11.43;7.75;;;20.20;68.50;;;;;;4881499;29;20043;-89
